KSOW

Show Low Regional Airport

Show Low, Arizona, USA
METAR KSOW 182335Z AUTO 26009KT 10SM CLR 25/13 A3026 RMK AO2 LTG DSNT NE
Observed Flight Rules
Aug-18 @ 23:35 UTC (10 minutes ago) Visual Flight Rules
Wind Visibility Clouds
260° at 9 knots 10 miles
  • Clear skies
Temperatures Readings
Current 25°C / 77°F
Dewpoint 13°C / 55°F
Humidity 47%
Altimeter 30.26" Hg
Pressure 1025 hPa
Elevation 1954
METAR KSOW 182335Z AUTO 26009KT 10SM CLR 25/13 A3026 RMK AO2 LTG DSNT NE
Observed Flight Rules
Aug-18 @ 23:35 UTC
(10 minutes ago)
VFR
Wind Visibility
260° at 9 knots 10 miles
Clouds
  • Clear skies
Temperature Dewpoint
25°C / 77°F 13°C / 55°F
Humidity Altimeter Pressure
47% 30.26" Hg 1025 hPa